Time;durP1;ratioP1;P1;durP2;ratioP2;P2;SDS_P1;SDS_P2;PMS_P1;PMS_P2;Temp;Humidity;BMP_temperature;BMP_pressure;BME280_temperature;BME280_humidity;BME280_pressure;Samples;Min_cycle;Max_cycle;Signal;HPM_P1;HPM_P2
2022/12/27 00:00:22;;;;;;;13.30;2.67;;;;;;;6.09;100.00;102143.69;4931988;29;20441;-71
2022/12/27 00:02:48;;;;;;;14.82;2.40;;;;;;;6.16;100.00;102140.25;4932998;28;20034;-73
2022/12/27 00:05:14;;;;;;;14.60;2.88;;;;;;;6.16;100.00;102142.84;4952424;29;20106;-69
2022/12/27 00:07:40;;;;;;;14.35;2.75;;;;;;;6.25;100.00;102139.41;4936915;29;20034;-70
2022/12/27 00:10:06;;;;;;;17.65;2.53;;;;;;;6.28;100.00;102139.44;4953744;29;20030;-73
2022/12/27 00:12:32;;;;;;;22.70;2.30;;;;;;;6.34;100.00;102135.97;4988990;28;20529;-71
2022/12/27 00:14:57;;;;;;;13.75;4.97;;;;;;;6.46;100.00;102143.00;4991204;28;20050;-71
2022/12/27 00:17:22;;;;;;;11.90;2.05;;;;;;;6.51;100.00;102140.41;4992235;28;20023;-71
2022/12/27 00:19:48;;;;;;;20.20;2.85;;;;;;;6.52;100.00;102132.56;4992515;28;20037;-67
2022/12/27 00:22:13;;;;;;;14.63;2.47;;;;;;;6.53;100.00;102136.91;4992508;28;20022;-70
2022/12/27 00:24:39;;;;;;;11.95;2.10;;;;;;;6.62;100.00;102138.69;4992401;28;20458;-71
2022/12/27 00:27:04;;;;;;;12.63;2.35;;;;;;;6.66;100.00;102139.59;4991921;28;20085;-72
2022/12/27 00:29:30;;;;;;;12.80;2.35;;;;;;;6.60;100.00;102143.06;4957823;28;20412;-70
2022/12/27 00:31:55;;;;;;;27.23;2.83;;;;;;;6.62;100.00;102143.06;4991798;28;20026;-71
2022/12/27 00:34:20;;;;;;;19.45;2.70;;;;;;;6.57;100.00;102150.91;4981082;28;20625;-69
2022/12/27 00:36:46;;;;;;;14.98;2.97;;;;;;;6.56;100.00;102157.00;4955046;28;20481;-68
2022/12/27 00:39:11;;;;;;;12.73;2.63;;;;;;;6.53;100.00;102155.25;4971267;28;20042;-72
2022/12/27 00:41:36;;;;;;;16.50;3.60;;;;;;;6.47;100.00;102162.22;4970955;28;20025;-70
2022/12/27 00:44:02;;;;;;;18.35;2.58;;;;;;;6.53;100.00;102151.78;4971903;28;20516;-72
2022/12/27 00:46:27;;;;;;;16.35;2.33;;;;;;;6.54;100.00;102162.22;4971222;28;20058;-70
2022/12/27 00:48:54;;;;;;;11.90;3.35;;;;;;;6.51;100.00;102145.63;4971291;28;20027;-71
2022/12/27 00:51:21;;;;;;;13.40;2.80;;;;;;;6.44;100.00;102149.97;4972309;28;20102;-71
2022/12/27 00:53:48;;;;;;;15.27;2.10;;;;;;;6.60;100.00;102152.66;4972206;28;20034;-67
2022/12/27 00:56:19;;;;;;;16.00;2.30;;;;;;;6.63;100.00;102145.69;4971242;28;20035;-72
2022/12/27 00:58:44;;;;;;;15.48;2.00;;;;;;;6.68;100.00;102153.53;4954677;28;20035;-72
2022/12/27 01:01:16;;;;;;;14.00;2.25;;;;;;;6.69;100.00;102165.78;4953096;28;20306;-71
2022/12/27 01:03:41;;;;;;;11.05;2.33;;;;;;;6.63;100.00;102181.47;4972773;28;20037;-72
2022/12/27 01:06:12;;;;;;;7.53;1.75;;;;;;;6.57;100.00;102185.81;4971812;28;20109;-71
2022/12/27 01:08:38;;;;;;;9.50;1.90;;;;;;;6.56;100.00;102175.31;4955024;28;20031;-69
2022/12/27 01:11:04;;;;;;;15.13;2.25;;;;;;;6.48;100.00;102191.03;4971597;28;20022;-68
2022/12/27 01:13:30;;;;;;;12.73;1.80;;;;;;;6.42;100.00;102181.38;4971972;28;20058;-70
2022/12/27 01:15:56;;;;;;;11.07;1.75;;;;;;;6.38;100.00;102177.00;4970154;28;20102;-72
2022/12/27 01:18:21;;;;;;;9.15;1.58;;;;;;;6.47;100.00;102184.00;4968994;28;20039;-69
2022/12/27 01:20:47;;;;;;;6.55;1.30;;;;;;;6.41;100.00;102189.25;4971836;28;20030;-72
2022/12/27 01:23:12;;;;;;;4.18;1.10;;;;;;;6.42;100.00;102189.22;4952627;28;20453;-71
2022/12/27 01:25:37;;;;;;;9.30;1.50;;;;;;;6.42;100.00;102196.22;4953802;28;20031;-71
2022/12/27 01:28:03;;;;;;;10.25;2.33;;;;;;;6.45;100.00;102196.25;4953347;28;20029;-71
2022/12/27 01:30:28;;;;;;;7.25;1.77;;;;;;;6.39;100.00;102204.94;4970367;28;20074;-70
2022/12/27 01:32:54;;;;;;;10.88;2.00;;;;;;;6.39;100.00;102207.56;4970468;28;20031;-69
2022/12/27 01:35:19;;;;;;;16.88;2.33;;;;;;;6.48;100.00;102208.47;4970994;28;20492;-70
2022/12/27 01:37:44;;;;;;;18.80;2.38;;;;;;;6.45;100.00;102211.94;4970117;28;20482;-70
2022/12/27 01:40:10;;;;;;;10.23;2.38;;;;;;;6.39;100.00;102215.41;4970298;28;20085;-70
2022/12/27 01:42:54;;;;;;;18.52;2.45;;;;;;;6.36;100.00;102220.63;4970487;28;20023;-71
2022/12/27 01:45:26;;;;;;;14.95;2.53;;;;;;;6.23;100.00;102216.19;4970481;28;20119;-71
2022/12/27 01:47:57;;;;;;;12.50;2.60;;;;;;;6.18;100.00;102221.38;4953478;28;20026;-72
2022/12/27 01:50:33;;;;;;;15.20;2.45;;;;;;;6.14;100.00;102219.63;4970300;28;20122;-72
2022/12/27 01:53:35;;;;;;;15.25;2.55;;;;;;;6.06;100.00;102223.03;4953038;28;20143;-71
2022/12/27 01:56:05;;;;;;;15.40;2.80;;;;;;;5.98;100.00;102223.81;4967035;28;20710;-71
2022/12/27 01:58:37;;;;;;;18.00;3.05;;;;;;;5.95;100.00;102222.06;4953588;28;20030;-71
2022/12/27 02:01:05;;;;;;;22.77;2.67;;;;;;;5.93;100.00;102216.81;4960534;28;20035;-71
2022/12/27 02:03:40;;;;;;;14.70;2.65;;;;;;;6.08;100.00;102225.66;4933120;29;20495;-71
2022/12/27 02:06:07;;;;;;;17.35;2.92;;;;;;;6.11;100.00;102243.16;4950081;29;20019;-71
2022/12/27 02:08:53;;;;;;;15.32;2.67;;;;;;;6.16;100.00;102244.94;4933355;29;20027;-71
2022/12/27 02:11:49;;;;;;;14.95;3.00;;;;;;;6.11;100.00;102238.78;4934460;29;20087;-71
2022/12/27 02:14:09;;;;;;;13.77;2.40;;;;;;;6.18;100.00;102242.31;4935377;29;20134;-70
2022/12/27 02:16:35;;;;;;;17.63;2.60;;;;;;;6.07;100.00;102245.75;4933965;29;20094;-70
2022/12/27 02:19:00;;;;;;;16.60;3.28;;;;;;;6.06;100.00;102254.44;4950701;29;20019;-71
2022/12/27 02:21:41;;;;;;;15.02;2.70;;;;;;;5.99;100.00;102254.38;4950628;29;20031;-71
2022/12/27 02:24:37;;;;;;;12.98;2.63;;;;;;;5.96;100.00;102255.19;4957857;28;20409;-70
2022/12/27 02:27:07;;;;;;;15.82;3.17;;;;;;;5.87;100.00;102255.13;4951587;28;20389;-70
2022/12/27 02:29:43;;;;;;;12.85;2.63;;;;;;;5.90;100.00;102252.56;4951066;28;20026;-71
2022/12/27 02:32:16;;;;;;;13.45;2.10;;;;;;;5.90;100.00;102265.63;4952043;28;20023;-70
2022/12/27 02:35:06;;;;;;;13.07;2.40;;;;;;;5.91;100.00;102259.53;4970115;28;20421;-70
2022/12/27 02:37:33;;;;;;;13.73;2.78;;;;;;;5.92;100.00;102266.50;4969854;28;20069;-70
2022/12/27 02:53:02;;;;;;;17.77;2.70;;;;;;;5.92;100.00;102262.16;4969462;28;20085;-71
2022/12/27 02:54:24;;;;;;;10.25;1.95;;;;;;;5.91;100.00;102277.84;4969799;28;20046;-69
2022/12/27 02:57:07;;;;;;;11.88;2.35;;;;;;;5.98;100.00;102287.50;4970294;28;20027;-71
2022/12/27 03:06:38;;;;;;;11.95;2.30;;;;;;;6.09;100.00;102287.63;4970313;28;20050;-71
2022/12/27 03:08:42;;;;;;;10.60;1.90;;;;;;;6.18;100.00;102287.69;4967742;28;20050;-71
2022/12/27 03:17:05;;;;;;;10.98;1.77;;;;;;;6.25;100.00;102286.00;4928994;29;20048;-71
2022/12/27 03:33:25;;;;;;;10.18;1.80;;;;;;;6.23;100.00;102303.41;4969511;28;20046;-69
2022/12/27 03:39:07;;;;;;;10.75;1.80;;;;;;;6.23;100.00;102300.81;4970256;28;20042;-72
2022/12/27 03:44:23;;;;;;;6.07;1.40;;;;;;;6.29;100.00;102311.34;4969308;28;20037;-68
2022/12/27 03:46:55;;;;;;;7.72;1.33;;;;;;;6.32;100.00;102320.94;4953348;28;20057;-72
2022/12/27 03:49:23;;;;;;;16.38;1.92;;;;;;;6.34;100.00;102315.72;4968876;28;20023;-70
2022/12/27 03:51:55;;;;;;;8.27;1.58;;;;;;;6.31;100.00;102311.34;4952622;28;20381;-69
2022/12/27 03:54:33;;;;;;;8.00;1.52;;;;;;;6.36;100.00;102317.50;4969243;28;20051;-69
2022/12/27 03:57:01;;;;;;;10.52;1.52;;;;;;;6.36;100.00;102316.63;4951903;28;20037;-71
2022/12/27 03:59:27;;;;;;;7.10;1.40;;;;;;;6.31;100.00;102322.69;4950181;28;20089;-70
2022/12/27 04:01:52;;;;;;;7.30;2.80;;;;;;;6.21;100.00;102322.59;4950758;28;20505;-70
2022/12/27 04:04:18;;;;;;;13.88;1.70;;;;;;;6.32;100.00;102319.22;4969338;28;20031;-70
2022/12/27 04:06:43;;;;;;;9.55;1.58;;;;;;;6.31;100.00;102300.88;4968669;28;20073;-68
2022/12/27 04:36:29;;;;;;;8.32;2.13;;;;;;;6.31;100.00;102321.81;4967108;28;20077;-67
2022/12/27 04:38:54;;;;;;;12.50;2.20;;;;;;;6.23;100.00;102331.34;4968450;28;20050;-69
2022/12/27 04:55:18;;;;;;;6.47;1.50;;;;;;;5.98;100.00;102318.00;4956559;28;20074;-70
2022/12/27 04:57:43;;;;;;;8.55;1.50;;;;;;;5.94;100.00;102322.34;4970546;28;20038;-69
2022/12/27 05:02:53;;;;;;;13.63;1.80;;;;;;;5.93;100.00;102320.59;4970923;28;20037;-70
2022/12/27 05:05:18;;;;;;;8.20;1.52;;;;;;;5.87;100.00;102321.41;4972334;28;20026;-70
2022/12/27 05:15:56;;;;;;;9.63;1.92;;;;;;;5.80;100.00;102345.75;4970002;28;20090;-67
2022/12/27 05:18:22;;;;;;;9.77;1.60;;;;;;;5.80;100.00;102343.13;4971275;28;20626;-69
2022/12/27 05:20:47;;;;;;;9.48;1.98;;;;;;;5.82;100.00;102350.13;4971086;28;20118;-70
2022/12/27 05:25:56;;;;;;;12.40;2.20;;;;;;;5.84;100.00;102359.75;4970735;28;20493;-69
2022/12/27 05:28:22;;;;;;;12.23;1.73;;;;;;;5.84;100.00;102359.75;4964562;28;20030;-69
2022/12/27 05:30:47;;;;;;;12.93;2.22;;;;;;;5.79;100.00;102354.47;4970357;28;20106;-72
2022/12/27 05:33:12;;;;;;;6.82;1.55;;;;;;;5.75;100.00;102363.16;4969929;28;20110;-71
2022/12/27 05:35:38;;;;;;;8.35;2.10;;;;;;;5.73;100.00;102360.50;4950876;28;20037;-70
2022/12/27 05:38:03;;;;;;;13.07;2.00;;;;;;;5.66;100.00;102362.16;4970600;28;20462;-71
2022/12/27 05:40:29;;;;;;;12.57;1.90;;;;;;;5.64;100.00;102361.28;4964284;28;20450;-71
2022/12/27 05:42:57;;;;;;;12.77;2.17;;;;;;;5.62;100.00;102362.09;4964236;28;20140;-71
2022/12/27 05:45:23;;;;;;;7.07;1.60;;;;;;;5.62;100.00;102365.63;4952026;28;20073;-71
2022/12/27 05:47:48;;;;;;;9.98;1.40;;;;;;;5.56;100.00;102363.81;4971016;28;20031;-71
2022/12/27 05:50:13;;;;;;;8.80;1.95;;;;;;;5.59;100.00;102362.97;4970006;28;20030;-71
2022/12/27 05:52:39;;;;;;;9.02;1.70;;;;;;;5.59;100.00;102362.06;4970190;28;20122;-69
2022/12/27 05:55:05;;;;;;;13.30;1.98;;;;;;;5.59;100.00;102365.56;4970394;28;20066;-72
2022/12/27 05:57:30;;;;;;;13.88;2.35;;;;;;;5.49;100.00;102362.00;4969984;28;20583;-72
2022/12/27 05:59:56;;;;;;;13.18;1.65;;;;;;;5.44;100.00;102361.03;4969522;28;20029;-72
2022/12/27 06:02:21;;;;;;;6.15;1.63;;;;;;;5.39;100.00;102360.97;4947560;28;20061;-71
2022/12/27 06:04:47;;;;;;;9.65;1.55;;;;;;;5.33;100.00;102363.53;4953128;28;20084;-72
2022/12/27 06:07:13;;;;;;;8.25;1.85;;;;;;;5.29;100.00;102364.34;4969478;28;20165;-71
2022/12/27 06:09:39;;;;;;;13.70;1.75;;;;;;;5.22;100.00;102368.63;4970469;28;20023;-72
2022/12/27 06:12:04;;;;;;;9.10;1.60;;;;;;;5.25;100.00;102383.47;4970157;28;20034;-69
2022/12/27 06:14:30;;;;;;;8.77;2.47;;;;;;;5.26;100.00;102386.09;4969589;28;20051;-73
2022/12/27 06:16:55;;;;;;;12.45;2.00;;;;;;;5.22;100.00;102386.91;4952017;28;20026;-72
2022/12/27 06:19:20;;;;;;;9.68;1.92;;;;;;;5.15;100.00;102398.16;4952621;28;20027;-68
2022/12/27 06:21:46;;;;;;;5.50;2.10;;;;;;;5.09;100.00;102398.06;4951453;28;20033;-68
2022/12/27 06:24:11;;;;;;;10.38;2.63;;;;;;;5.04;100.00;102405.81;4969643;28;20023;-70
2022/12/27 06:26:36;;;;;;;12.32;2.17;;;;;;;5.00;100.00;102409.25;4969209;28;20157;-72
2022/12/27 06:29:02;;;;;;;6.05;1.58;;;;;;;4.95;100.00;102416.13;4969080;28;20110;-71
2022/12/27 06:31:27;;;;;;;6.03;1.77;;;;;;;4.91;100.00;102405.63;4969777;28;20034;-68
2022/12/27 06:33:53;;;;;;;10.18;1.80;;;;;;;4.92;100.00;102412.63;4969707;28;20027;-71
2022/12/27 06:36:23;;;;;;;10.15;2.17;;;;;;;4.86;100.00;102416.88;4970182;28;20409;-72
2022/12/27 06:38:48;;;;;;;9.60;2.25;;;;;;;4.89;100.00;102406.47;4953090;28;20034;-70
2022/12/27 06:41:16;;;;;;;10.35;1.83;;;;;;;4.88;100.00;102407.34;4969867;28;20045;-72
2022/12/27 06:43:41;;;;;;;9.52;2.25;;;;;;;4.89;100.00;102407.34;4968504;28;20095;-72
2022/12/27 06:46:09;;;;;;;11.25;1.98;;;;;;;4.89;100.00;102403.84;4969806;28;20069;-72
2022/12/27 06:48:35;;;;;;;7.25;1.88;;;;;;;4.90;100.00;102410.81;4968716;28;20054;-72
2022/12/27 06:51:09;;;;;;;6.05;2.08;;;;;;;4.84;100.00;102408.16;4968018;28;20065;-70
2022/12/27 06:53:35;;;;;;;11.23;2.08;;;;;;;4.85;100.00;102409.91;4952485;28;20106;-72
2022/12/27 06:56:07;;;;;;;10.15;2.35;;;;;;;4.87;100.00;102416.88;4968381;28;20147;-72
2022/12/27 06:58:33;;;;;;;15.02;2.97;;;;;;;4.90;100.00;102418.66;4969114;28;20039;-71
2022/12/27 07:01:06;;;;;;;8.88;2.67;;;;;;;4.90;100.00;102413.44;4968258;28;20038;-70
2022/12/27 07:03:32;;;;;;;14.82;1.95;;;;;;;4.85;100.00;102420.34;4952034;28;20023;-68
2022/12/27 07:06:01;;;;;;;19.08;2.97;;;;;;;4.72;100.00;102425.38;4969233;28;20022;-72
2022/12/27 07:08:26;;;;;;;14.45;2.28;;;;;;;4.62;100.00;102433.91;4969441;28;20098;-70
2022/12/27 07:10:51;;;;;;;7.18;1.75;;;;;;;4.50;100.00;102426.75;4967339;28;20117;-69
2022/12/27 07:13:17;;;;;;;14.38;2.45;;;;;;;4.41;100.00;102436.19;4967873;28;20034;-72
2022/12/27 07:15:42;;;;;;;15.23;2.17;;;;;;;4.38;100.00;102437.84;4950211;28;20046;-71
2022/12/27 07:18:08;;;;;;;15.73;2.67;;;;;;;4.30;100.00;102433.38;4967485;28;20059;-70
2022/12/27 07:20:33;;;;;;;15.48;2.90;;;;;;;4.30;100.00;102433.38;4968036;28;20110;-71
2022/12/27 07:22:59;;;;;;;20.70;2.70;;;;;;;4.26;100.00;102434.16;4933719;28;20054;-72
2022/12/27 07:25:24;;;;;;;13.25;2.22;;;;;;;4.23;100.00;102435.84;4967672;28;20035;-71
2022/12/27 07:27:49;;;;;;;12.75;2.60;;;;;;;4.24;100.00;102438.47;4968659;28;20034;-71
2022/12/27 07:30:15;;;;;;;15.60;3.08;;;;;;;4.25;100.00;102434.16;4966349;28;20466;-69
2022/12/27 07:32:40;;;;;;;11.70;2.28;;;;;;;4.23;100.00;102435.84;4967518;28;20520;-73
2022/12/27 07:35:05;;;;;;;11.70;2.42;;;;;;;4.29;100.00;102439.44;4966398;28;20105;-71
2022/12/27 07:37:31;;;;;;;17.35;2.85;;;;;;;4.41;100.00;102443.13;4966228;28;20521;-70
2022/12/27 07:39:56;;;;;;;12.30;3.25;;;;;;;4.56;100.00;102445.13;4967451;28;20030;-72
2022/12/27 07:42:21;;;;;;;16.17;2.58;;;;;;;4.67;100.00;102448.78;4967553;28;20031;-71
2022/12/27 07:44:47;;;;;;;19.48;3.88;;;;;;;4.70;100.00;102437.53;4967028;28;20032;-74
2022/12/27 07:47:12;;;;;;;16.15;3.95;;;;;;;4.75;100.00;102441.09;4966776;28;20019;-72
2022/12/27 07:49:37;;;;;;;21.52;3.30;;;;;;;4.83;100.00;102432.50;4967112;28;20146;-69
2022/12/27 07:52:03;;;;;;;17.25;3.20;;;;;;;4.89;100.00;102443.03;4966617;28;20522;-74
2022/12/27 07:54:28;;;;;;;16.05;2.97;;;;;;;4.90;100.00;102439.56;4965208;28;20061;-72
2022/12/27 07:56:54;;;;;;;25.02;3.30;;;;;;;4.89;100.00;102440.44;4966584;28;20027;-70
2022/12/27 07:59:19;;;;;;;15.65;2.72;;;;;;;4.88;100.00;102441.28;4948780;28;20109;-68
2022/12/27 08:02:02;;;;;;;17.60;3.38;;;;;;;4.97;100.00;102451.00;4967837;28;20102;-71
2022/12/27 08:04:28;;;;;;;16.17;3.17;;;;;;;4.99;100.00;102444.94;4967669;28;20023;-71
2022/12/27 08:06:55;;;;;;;22.75;2.97;;;;;;;4.93;100.00;102445.72;4967413;28;20023;-72
2022/12/27 08:09:25;;;;;;;14.30;3.15;;;;;;;5.04;100.00;102448.53;4949399;28;20085;-72
2022/12/27 08:11:50;;;;;;;14.40;2.72;;;;;;;5.08;100.00;102452.03;4966472;28;20025;-70
2022/12/27 08:14:16;;;;;;;19.23;3.35;;;;;;;5.13;100.00;102458.22;4966684;28;20039;-70
2022/12/27 08:16:41;;;;;;;16.23;2.85;;;;;;;5.14;100.00;102457.34;4963858;28;20456;-68
2022/12/27 08:19:06;;;;;;;22.35;3.47;;;;;;;5.10;100.00;102458.19;4966571;28;20470;-70
2022/12/27 08:21:32;;;;;;;15.88;2.67;;;;;;;5.08;100.00;102451.19;4965666;28;20032;-72
2022/12/27 08:23:57;;;;;;;15.80;2.60;;;;;;;5.03;100.00;102454.56;4949576;28;20018;-68
2022/12/27 08:26:23;;;;;;;15.93;2.90;;;;;;;5.03;100.00;102459.81;4969897;28;20042;-70
2022/12/27 08:28:48;;;;;;;15.18;3.55;;;;;;;5.03;100.00;102465.03;4970126;28;20342;-68
2022/12/27 08:31:13;;;;;;;10.15;2.50;;;;;;;5.01;100.00;102458.03;4952676;28;20102;-71
2022/12/27 08:33:40;;;;;;;16.77;2.63;;;;;;;5.04;100.00;102458.97;4970780;28;20292;-68
2022/12/27 08:36:07;;;;;;;12.50;2.50;;;;;;;5.08;100.00;102456.41;4970630;28;20690;-69
2022/12/27 08:38:33;;;;;;;26.08;5.75;;;;;;;5.10;100.00;102454.69;4953381;28;20037;-67
2022/12/27 08:40:59;;;;;;;13.43;3.13;;;;;;;5.08;100.00;102456.41;4949741;28;20027;-69
2022/12/27 08:43:24;;;;;;;16.38;3.35;;;;;;;5.04;100.00;102458.97;4969159;28;20058;-66
2022/12/27 08:45:49;;;;;;;15.65;3.03;;;;;;;5.10;100.00;102458.19;4951985;28;20034;-69
2022/12/27 08:48:15;;;;;;;12.75;3.05;;;;;;;5.18;100.00;102463.53;4970310;28;20033;-69
2022/12/27 08:50:40;;;;;;;13.55;3.42;;;;;;;5.17;100.00;102459.13;4970752;28;20082;-68
2022/12/27 08:53:05;;;;;;;19.25;3.50;;;;;;;5.21;100.00;102455.69;4970217;28;20077;-69
2022/12/27 08:55:31;;;;;;;18.45;3.90;;;;;;;5.23;100.00;102453.09;4952824;28;20057;-67
2022/12/27 08:58:03;;;;;;;21.98;3.80;;;;;;;5.27;100.00;102453.19;4963544;28;20031;-71
2022/12/27 09:00:29;;;;;;;18.48;4.30;;;;;;;5.27;100.00;102462.78;4968980;28;20027;-70
2022/12/27 09:02:54;;;;;;;18.20;4.00;;;;;;;5.29;100.00;102455.81;4952156;28;20070;-69
2022/12/27 09:05:21;;;;;;;12.73;3.33;;;;;;;5.37;100.00;102467.28;4953095;28;20027;-69
2022/12/27 09:07:47;;;;;;;16.52;3.47;;;;;;;5.40;100.00;102469.06;4969590;28;20050;-68
2022/12/27 09:10:13;;;;;;;10.80;3.10;;;;;;;5.41;100.00;102468.19;4967810;28;20066;-70
2022/12/27 09:12:38;;;;;;;15.13;4.00;;;;;;;5.43;100.00;102475.22;4953756;28;20082;-71
2022/12/27 09:15:04;;;;;;;13.82;3.33;;;;;;;5.46;100.00;102466.53;4968813;28;20074;-72
2022/12/27 09:17:30;;;;;;;16.38;3.35;;;;;;;5.46;100.00;102471.75;4970961;28;20077;-71
2022/12/27 09:19:55;;;;;;;13.82;3.38;;;;;;;5.46;100.00;102484.84;4970607;28;20118;-71
2022/12/27 09:22:20;;;;;;;16.20;3.58;;;;;;;5.49;100.00;102482.25;4971252;28;20315;-67
2022/12/27 09:24:46;;;;;;;15.68;3.25;;;;;;;5.52;100.00;102482.31;4971795;28;20030;-74
2022/12/27 09:27:11;;;;;;;8.02;2.58;;;;;;;5.64;100.00;102496.41;4970806;28;20023;-73
2022/12/27 09:29:36;;;;;;;12.68;3.30;;;;;;;5.79;100.00;102486.16;4970719;28;20034;-74
2022/12/27 09:32:02;;;;;;;15.40;2.92;;;;;;;5.89;100.00;102481.00;4961959;28;20030;-69
2022/12/27 09:34:27;;;;;;;20.48;3.65;;;;;;;5.97;100.00;102476.75;4951869;28;20039;-71
2022/12/27 09:36:52;;;;;;;8.90;2.63;;;;;;;6.09;100.00;102472.56;4968687;28;20027;-72
2022/12/27 09:39:18;;;;;;;18.25;3.15;;;;;;;6.13;100.00;102469.09;4950386;28;20027;-71
2022/12/27 09:41:59;;;;;;;15.35;3.08;;;;;;;6.17;100.00;102466.53;4969061;28;20049;-69
2022/12/27 09:44:32;;;;;;;8.15;2.85;;;;;;;6.20;100.00;102476.16;4950273;28;20026;-70
2022/12/27 09:47:05;;;;;;;15.20;2.92;;;;;;;6.30;100.00;102478.00;4950968;28;20065;-71
2022/12/27 09:49:36;;;;;;;10.82;2.95;;;;;;;6.36;100.00;102477.22;4952421;28;20034;-70
2022/12/27 09:52:12;;;;;;;14.93;3.10;;;;;;;6.32;100.00;102480.66;4969239;28;20057;-71
2022/12/27 09:54:48;;;;;;;14.13;3.33;;;;;;;6.18;100.00;102480.50;4969262;28;20340;-69
2022/12/27 09:57:17;;;;;;;10.43;2.90;;;;;;;6.29;100.00;102493.72;4968067;28;20027;-70
2022/12/27 10:00:00;;;;;;;12.02;3.08;;;;;;;6.29;100.00;102499.81;4951273;28;20031;-71
2022/12/27 10:02:27;;;;;;;9.88;2.80;;;;;;;6.32;100.00;102492.00;4936061;28;20058;-70
2022/12/27 10:04:53;;;;;;;8.85;2.45;;;;;;;6.23;100.00;102494.53;4967757;28;20022;-71
2022/12/27 10:07:28;;;;;;;8.98;3.22;;;;;;;6.27;100.00;102501.56;4936643;28;20027;-74
2022/12/27 10:09:59;;;;;;;10.60;2.50;;;;;;;6.38;100.00;102503.44;4935217;28;20050;-71
2022/12/27 10:12:53;;;;;;;13.35;2.85;;;;;;;6.36;100.00;102498.16;4952523;28;20109;-72
2022/12/27 10:15:27;;;;;;;10.77;2.78;;;;;;;6.58;100.00;102495.75;4951998;28;20051;-72
2022/12/27 10:18:28;;;;;;;18.55;3.38;;;;;;;6.75;100.00;102501.16;4951593;28;20114;-70
2022/12/27 10:21:01;;;;;;;22.20;3.58;;;;;;;6.79;100.00;102491.56;4946675;28;20097;-72
2022/12/27 10:23:31;;;;;;;12.23;3.50;;;;;;;6.88;100.00;102490.75;4968102;28;20023;-70
2022/12/27 10:25:59;;;;;;;11.82;2.97;;;;;;;6.85;100.00;102489.00;4966967;28;20466;-68
2022/12/27 10:28:32;;;;;;;8.02;2.60;;;;;;;6.86;100.00;102495.13;4959950;28;20059;-70
2022/12/27 10:31:01;;;;;;;11.80;3.22;;;;;;;6.88;100.00;102490.75;4930075;29;20023;-69
2022/12/27 10:33:28;;;;;;;16.33;3.13;;;;;;;6.96;100.00;102483.88;4928711;29;20019;-72
2022/12/27 10:35:54;;;;;;;11.48;2.60;;;;;;;7.01;100.00;102482.13;4946679;29;20031;-70
2022/12/27 10:38:20;;;;;;;12.50;3.00;;;;;;;6.95;100.00;102476.84;4948407;29;20025;-72
2022/12/27 10:40:45;;;;;;;14.65;3.35;;;;;;;6.98;100.00;102470.78;4914885;29;20047;-71
2022/12/27 10:43:27;;;;;;;9.15;3.30;;;;;;;7.07;100.00;102463.84;4947078;29;20081;-69
2022/12/27 10:45:52;;;;;;;12.82;3.25;;;;;;;7.09;100.00;102474.34;4930965;29;20016;-72
2022/12/27 10:48:25;;;;;;;12.85;2.78;;;;;;;7.22;100.00;102485.78;4932004;29;20034;-70
2022/12/27 10:50:59;;;;;;;18.77;3.33;;;;;;;7.23;100.00;102477.06;4933892;28;20031;-68
2022/12/27 10:53:33;;;;;;;14.32;4.25;;;;;;;7.27;100.00;102488.44;4969283;28;20034;-72
2022/12/27 10:56:13;;;;;;;15.73;3.38;;;;;;;7.30;100.00;102489.34;4969178;28;20030;-70
2022/12/27 10:58:46;;;;;;;13.45;3.40;;;;;;;7.27;100.00;102484.06;4985930;28;20109;-70
2022/12/27 11:01:18;;;;;;;8.68;3.10;;;;;;;7.35;100.00;102491.13;4987702;28;20018;-73
2022/12/27 11:03:43;;;;;;;12.40;3.20;;;;;;;7.36;100.00;102478.00;4970488;28;20026;-71
2022/12/27 11:06:29;;;;;;;8.75;3.17;;;;;;;7.31;100.00;102479.72;4987688;28;20026;-71
2022/12/27 11:08:54;;;;;;;12.55;3.30;;;;;;;7.38;100.00;102481.53;4986869;28;20074;-71
2022/12/27 11:11:24;;;;;;;13.93;3.92;;;;;;;7.45;100.00;102482.44;4982235;28;20370;-72
2022/12/27 11:13:51;;;;;;;9.40;3.67;;;;;;;7.42;100.00;102482.41;4949279;28;20074;-70
2022/12/27 11:16:34;;;;;;;12.05;3.58;;;;;;;7.56;100.00;102490.38;4967440;28;20073;-72
2022/12/27 11:19:00;;;;;;;14.52;3.67;;;;;;;7.71;100.00;102485.19;4950905;28;20058;-71
2022/12/27 11:21:26;;;;;;;12.60;4.07;;;;;;;7.82;100.00;102485.25;4950786;28;20030;-70
2022/12/27 11:23:58;;;;;;;14.23;3.60;;;;;;;7.91;100.00;102484.38;4968160;28;20073;-71
2022/12/27 11:26:27;;;;;;;16.02;4.18;;;;;;;7.94;100.00;102476.53;4951124;28;20026;-71
2022/12/27 11:28:56;;;;;;;11.13;3.65;;;;;;;8.01;100.00;102473.94;4949921;28;20065;-70
2022/12/27 11:31:35;;;;;;;14.18;3.67;;;;;;;8.21;100.00;102472.25;4967734;28;20031;-71
2022/12/27 11:34:24;;;;;;;7.15;3.10;;;;;;;8.36;100.00;102472.28;4967058;28;20109;-72
2022/12/27 11:36:52;;;;;;;7.55;2.80;;;;;;;8.42;100.00;102467.91;4956625;28;20035;-71
2022/12/27 11:39:41;;;;;;;7.73;3.20;;;;;;;8.50;100.00;102474.91;4949893;28;20026;-73
2022/12/27 11:42:37;;;;;;;9.65;3.47;;;;;;;8.59;100.00;102475.84;4966391;28;20019;-68
2022/12/27 11:45:08;;;;;;;16.20;3.50;;;;;;;8.68;100.00;102474.09;4967669;28;20058;-68
2022/12/27 11:47:40;;;;;;;9.68;3.00;;;;;;;8.63;100.00;102474.06;4967914;28;20234;-72
2022/12/27 11:50:37;;;;;;;7.40;2.92;;;;;;;8.77;100.00;102463.59;4950465;28;20029;-70
2022/12/27 11:53:40;;;;;;;10.23;3.45;;;;;;;8.76;100.00;102456.53;4937042;28;20051;-71
2022/12/27 11:56:06;;;;;;;13.65;3.20;;;;;;;8.79;100.00;102451.28;4967360;28;20066;-73
2022/12/27 11:58:58;;;;;;;12.45;3.17;;;;;;;8.81;100.00;102454.81;4965532;28;20082;-70
2022/12/27 12:01:29;;;;;;;13.40;3.17;;;;;;;8.65;100.00;102458.31;4970648;28;20027;-70
2022/12/27 12:04:22;;;;;;;10.63;3.08;;;;;;;8.57;100.00;102451.31;4970969;28;20033;-69
2022/12/27 12:07:06;;;;;;;10.07;3.13;;;;;;;8.64;100.00;102462.69;4954616;28;20524;-72
2022/12/27 12:09:57;;;;;;;7.18;3.22;;;;;;;8.64;100.00;102456.56;4971466;28;20470;-71
2022/12/27 12:12:50;;;;;;;15.13;3.40;;;;;;;8.74;100.00;102439.94;4971661;28;20031;-71
2022/12/27 12:15:25;;;;;;;14.35;3.28;;;;;;;9.10;100.00;102430.22;4971654;28;20489;-71
2022/12/27 12:18:24;;;;;;;11.23;3.55;;;;;;;9.53;100.00;102423.09;4968455;28;20081;-70
2022/12/27 12:21:00;;;;;;;12.38;3.05;;;;;;;10.11;100.00;102415.75;4958892;28;20522;-72
2022/12/27 12:23:26;;;;;;;13.15;3.97;;;;;;;10.23;100.00;102419.19;4964469;28;20236;-72
2022/12/27 12:26:19;;;;;;;14.07;3.00;;;;;;;10.96;100.00;102415.09;4968896;28;20470;-68
2022/12/27 12:28:52;;;;;;;10.00;3.20;;;;;;;11.41;100.00;102405.81;4970434;28;20070;-70
2022/12/27 12:31:31;;;;;;;11.27;2.88;;;;;;;11.80;98.89;102387.69;4953619;28;20491;-69
2022/12/27 12:34:04;;;;;;;13.52;3.08;;;;;;;11.97;95.58;102394.50;4969963;28;20050;-70
2022/12/27 12:36:46;;;;;;;8.52;2.45;;;;;;;12.06;95.79;102388.19;4971305;28;20038;-71
2022/12/27 12:39:22;;;;;;;19.38;3.13;;;;;;;11.45;98.11;102381.13;4952364;28;20304;-70
2022/12/27 12:42:06;;;;;;;9.95;2.58;;;;;;;11.00;100.00;102385.16;4970696;28;20114;-71
2022/12/27 12:44:39;;;;;;;6.35;2.20;;;;;;;10.70;100.00;102381.94;4968969;28;20042;-71
2022/12/27 12:47:20;;;;;;;14.05;2.65;;;;;;;10.42;100.00;102376.91;4970929;28;20041;-71
2022/12/27 12:49:49;;;;;;;11.15;2.80;;;;;;;10.04;100.00;102356.13;4970986;28;20034;-71
2022/12/27 12:52:48;;;;;;;11.75;2.72;;;;;;;9.30;100.00;102352.16;4953572;28;20023;-68
2022/12/27 12:55:44;;;;;;;10.02;2.92;;;;;;;9.25;100.00;102343.41;4970371;28;20370;-71
2022/12/27 12:58:15;;;;;;;16.17;2.90;;;;;;;9.13;100.00;102349.56;4948448;28;20061;-71
2022/12/27 13:01:02;;;;;;;9.38;3.40;;;;;;;9.09;100.00;102327.66;4969259;28;20090;-70
2022/12/27 13:03:36;;;;;;;13.75;2.80;;;;;;;8.93;100.00;102329.47;4968718;28;20039;-70
2022/12/27 13:06:12;;;;;;;12.57;2.67;;;;;;;8.88;100.00;102331.25;4969427;28;20034;-71
2022/12/27 13:08:43;;;;;;;10.98;3.03;;;;;;;8.84;100.00;102328.63;4953224;28;20019;-70
2022/12/27 13:11:23;;;;;;;10.45;3.10;;;;;;;8.79;100.00;102333.00;4969696;28;20030;-70